sensor_id;sensor_type;location;lat;lon;timestamp;temperature;humidity
57576;DHT22;43412;-33.800;150.804;2022-07-17T00:00:26;22.00;79.70
57576;DHT22;43412;-33.800;150.804;2022-07-17T00:02:54;22.20;79.20
57576;DHT22;43412;-33.800;150.804;2022-07-17T00:05:22;22.20;79.90
57576;DHT22;43412;-33.800;150.804;2022-07-17T00:07:49;22.40;80.00
57576;DHT22;43412;-33.800;150.804;2022-07-17T00:10:17;22.50;79.10
57576;DHT22;43412;-33.800;150.804;2022-07-17T00:12:44;22.40;79.30
57576;DHT22;43412;-33.800;150.804;2022-07-17T00:15:12;21.80;79.30
57576;DHT22;43412;-33.800;150.804;2022-07-17T00:17:40;21.70;79.90
57576;DHT22;43412;-33.800;150.804;2022-07-17T00:20:08;22.00;80.30
57576;DHT22;43412;-33.800;150.804;2022-07-17T00:22:36;22.20;79.90
57576;DHT22;43412;-33.800;150.804;2022-07-17T00:25:04;22.30;80.50
57576;DHT22;43412;-33.800;150.804;2022-07-17T00:27:32;22.50;78.60
57576;DHT22;43412;-33.800;150.804;2022-07-17T00:29:59;22.30;79.10
57576;DHT22;43412;-33.800;150.804;2022-07-17T00:32:27;22.50;80.00
57576;DHT22;43412;-33.800;150.804;2022-07-17T00:34:54;22.80;79.80
57576;DHT22;43412;-33.800;150.804;2022-07-17T00:37:22;23.30;79.10
57576;DHT22;43412;-33.800;150.804;2022-07-17T00:39:49;23.10;78.50
57576;DHT22;43412;-33.800;150.804;2022-07-17T00:42:17;23.10;78.70
57576;DHT22;43412;-33.800;150.804;2022-07-17T00:44:45;23.00;79.00
57576;DHT22;43412;-33.800;150.804;2022-07-17T00:47:20;23.10;78.80
57576;DHT22;43412;-33.800;150.804;2022-07-17T00:49:48;23.50;78.60
57576;DHT22;43412;-33.800;150.804;2022-07-17T00:52:17;24.00;77.70
57576;DHT22;43412;-33.800;150.804;2022-07-17T00:54:46;24.60;77.00
57576;DHT22;43412;-33.800;150.804;2022-07-17T00:57:15;24.50;76.10
57576;DHT22;43412;-33.800;150.804;2022-07-17T00:59:43;24.30;76.00
57576;DHT22;43412;-33.800;150.804;2022-07-17T01:02:12;24.30;76.10
57576;DHT22;43412;-33.800;150.804;2022-07-17T01:04:43;24.70;76.30
57576;DHT22;43412;-33.800;150.804;2022-07-17T01:07:10;25.00;76.10
57576;DHT22;43412;-33.800;150.804;2022-07-17T01:09:38;25.50;75.20
57576;DHT22;43412;-33.800;150.804;2022-07-17T01:12:07;25.40;74.10
57576;DHT22;43412;-33.800;150.804;2022-07-17T01:14:36;25.40;74.40
57576;DHT22;43412;-33.800;150.804;2022-07-17T01:17:04;25.40;70.90
57576;DHT22;43412;-33.800;150.804;2022-07-17T01:19:32;24.60;68.60
57576;DHT22;43412;-33.800;150.804;2022-07-17T01:21:59;24.20;69.90
57576;DHT22;43412;-33.800;150.804;2022-07-17T01:24:26;24.50;69.90
57576;DHT22;43412;-33.800;150.804;2022-07-17T01:26:54;24.60;68.80
57576;DHT22;43412;-33.800;150.804;2022-07-17T01:29:21;24.60;68.10
57576;DHT22;43412;-33.800;150.804;2022-07-17T01:31:49;24.60;69.50
57576;DHT22;43412;-33.800;150.804;2022-07-17T01:34:16;25.00;68.30
57576;DHT22;43412;-33.800;150.804;2022-07-17T01:36:44;24.60;66.90
57576;DHT22;43412;-33.800;150.804;2022-07-17T01:39:11;24.50;68.20
57576;DHT22;43412;-33.800;150.804;2022-07-17T01:41:39;24.60;66.90
57576;DHT22;43412;-33.800;150.804;2022-07-17T01:44:07;24.30;67.20
57576;DHT22;43412;-33.800;150.804;2022-07-17T01:46:35;24.60;66.40
57576;DHT22;43412;-33.800;150.804;2022-07-17T01:49:02;24.60;67.20
57576;DHT22;43412;-33.800;150.804;2022-07-17T01:51:30;24.90;65.90
57576;DHT22;43412;-33.800;150.804;2022-07-17T01:53:57;24.90;65.80
57576;DHT22;43412;-33.800;150.804;2022-07-17T01:56:25;24.70;65.20
57576;DHT22;43412;-33.800;150.804;2022-07-17T01:58:52;24.50;65.90
57576;DHT22;43412;-33.800;150.804;2022-07-17T02:01:20;24.70;65.30
57576;DHT22;43412;-33.800;150.804;2022-07-17T02:03:47;24.80;66.10
57576;DHT22;43412;-33.800;150.804;2022-07-17T02:06:14;24.90;65.20
57576;DHT22;43412;-33.800;150.804;2022-07-17T02:08:42;25.10;65.40
57576;DHT22;43412;-33.800;150.804;2022-07-17T02:11:09;25.70;66.10
57576;DHT22;43412;-33.800;150.804;2022-07-17T02:13:37;25.40;64.70
57576;DHT22;43412;-33.800;150.804;2022-07-17T02:16:04;25.10;64.50
57576;DHT22;43412;-33.800;150.804;2022-07-17T02:18:32;24.90;64.50
57576;DHT22;43412;-33.800;150.804;2022-07-17T02:21:00;24.50;64.90
57576;DHT22;43412;-33.800;150.804;2022-07-17T02:23:28;24.10;64.60
57576;DHT22;43412;-33.800;150.804;2022-07-17T02:25:55;23.70;66.40
57576;DHT22;43412;-33.800;150.804;2022-07-17T02:28:23;24.20;65.90
57576;DHT22;43412;-33.800;150.804;2022-07-17T02:30:50;23.60;65.10
57576;DHT22;43412;-33.800;150.804;2022-07-17T02:33:18;23.10;65.50
57576;DHT22;43412;-33.800;150.804;2022-07-17T02:35:45;23.10;65.50
57576;DHT22;43412;-33.800;150.804;2022-07-17T02:38:13;23.10;65.20
57576;DHT22;43412;-33.800;150.804;2022-07-17T02:40:40;23.20;65.30
57576;DHT22;43412;-33.800;150.804;2022-07-17T02:43:08;23.10;64.60
57576;DHT22;43412;-33.800;150.804;2022-07-17T02:45:36;23.30;66.10
57576;DHT22;43412;-33.800;150.804;2022-07-17T02:48:03;23.90;65.10
57576;DHT22;43412;-33.800;150.804;2022-07-17T02:50:31;23.80;64.60
57576;DHT22;43412;-33.800;150.804;2022-07-17T02:52:59;23.70;64.80
57576;DHT22;43412;-33.800;150.804;2022-07-17T02:55:27;23.60;64.50
57576;DHT22;43412;-33.800;150.804;2022-07-17T02:57:54;23.20;62.90
57576;DHT22;43412;-33.800;150.804;2022-07-17T03:00:22;23.10;64.30
57576;DHT22;43412;-33.800;150.804;2022-07-17T03:02:49;22.90;63.70
57576;DHT22;43412;-33.800;150.804;2022-07-17T03:05:17;22.50;63.30
57576;DHT22;43412;-33.800;150.804;2022-07-17T03:07:45;22.50;64.50
57576;DHT22;43412;-33.800;150.804;2022-07-17T03:10:13;22.60;64.80
57576;DHT22;43412;-33.800;150.804;2022-07-17T03:12:42;22.50;63.90
57576;DHT22;43412;-33.800;150.804;2022-07-17T03:15:10;22.30;64.00
57576;DHT22;43412;-33.800;150.804;2022-07-17T03:17:40;22.50;64.00
57576;DHT22;43412;-33.800;150.804;2022-07-17T03:20:09;22.50;63.80
57576;DHT22;43412;-33.800;150.804;2022-07-17T03:22:37;22.40;63.90
57576;DHT22;43412;-33.800;150.804;2022-07-17T03:25:05;22.30;63.00
57576;DHT22;43412;-33.800;150.804;2022-07-17T03:27:32;22.20;62.80
57576;DHT22;43412;-33.800;150.804;2022-07-17T03:30:00;22.20;63.10
57576;DHT22;43412;-33.800;150.804;2022-07-17T03:32:28;22.10;63.90
57576;DHT22;43412;-33.800;150.804;2022-07-17T03:34:55;21.90;62.30
57576;DHT22;43412;-33.800;150.804;2022-07-17T03:37:23;21.60;63.10
57576;DHT22;43412;-33.800;150.804;2022-07-17T03:39:51;21.40;63.70
57576;DHT22;43412;-33.800;150.804;2022-07-17T03:42:19;21.20;64.30
57576;DHT22;43412;-33.800;150.804;2022-07-17T03:44:46;21.10;64.60
57576;DHT22;43412;-33.800;150.804;2022-07-17T03:47:14;21.00;64.50
57576;DHT22;43412;-33.800;150.804;2022-07-17T03:49:41;21.00;64.50
57576;DHT22;43412;-33.800;150.804;2022-07-17T03:52:09;20.80;64.40
57576;DHT22;43412;-33.800;150.804;2022-07-17T03:54:36;20.70;65.10
57576;DHT22;43412;-33.800;150.804;2022-07-17T03:57:03;20.70;64.00
57576;DHT22;43412;-33.800;150.804;2022-07-17T03:59:31;20.60;65.40
57576;DHT22;43412;-33.800;150.804;2022-07-17T04:01:58;20.60;64.90
57576;DHT22;43412;-33.800;150.804;2022-07-17T04:04:26;20.60;65.30
57576;DHT22;43412;-33.800;150.804;2022-07-17T04:06:53;20.60;64.70
57576;DHT22;43412;-33.800;150.804;2022-07-17T04:09:20;20.60;64.70
57576;DHT22;43412;-33.800;150.804;2022-07-17T04:11:48;20.50;65.20
57576;DHT22;43412;-33.800;150.804;2022-07-17T04:14:15;20.60;65.70
57576;DHT22;43412;-33.800;150.804;2022-07-17T04:16:43;20.60;66.00
57576;DHT22;43412;-33.800;150.804;2022-07-17T04:19:10;20.60;66.00
57576;DHT22;43412;-33.800;150.804;2022-07-17T04:21:38;20.60;64.80
57576;DHT22;43412;-33.800;150.804;2022-07-17T04:24:05;20.60;65.80
57576;DHT22;43412;-33.800;150.804;2022-07-17T04:26:33;20.60;65.80
57576;DHT22;43412;-33.800;150.804;2022-07-17T04:29:00;20.60;65.60
57576;DHT22;43412;-33.800;150.804;2022-07-17T04:31:27;20.50;64.30
57576;DHT22;43412;-33.800;150.804;2022-07-17T04:33:55;20.50;65.80
57576;DHT22;43412;-33.800;150.804;2022-07-17T04:36:22;20.50;64.50
57576;DHT22;43412;-33.800;150.804;2022-07-17T04:38:49;20.50;64.80
57576;DHT22;43412;-33.800;150.804;2022-07-17T04:41:17;20.50;64.80
57576;DHT22;43412;-33.800;150.804;2022-07-17T04:43:44;20.40;64.10
57576;DHT22;43412;-33.800;150.804;2022-07-17T04:46:12;20.40;63.40
57576;DHT22;43412;-33.800;150.804;2022-07-17T04:48:39;20.30;63.80
57576;DHT22;43412;-33.800;150.804;2022-07-17T04:51:06;20.30;64.10
57576;DHT22;43412;-33.800;150.804;2022-07-17T04:53:34;20.30;63.90
57576;DHT22;43412;-33.800;150.804;2022-07-17T04:56:02;20.30;63.80
57576;DHT22;43412;-33.800;150.804;2022-07-17T04:58:29;20.30;63.30
57576;DHT22;43412;-33.800;150.804;2022-07-17T05:00:57;20.40;62.40
57576;DHT22;43412;-33.800;150.804;2022-07-17T05:03:24;20.30;62.00
57576;DHT22;43412;-33.800;150.804;2022-07-17T05:05:52;20.30;62.10
57576;DHT22;43412;-33.800;150.804;2022-07-17T05:08:19;20.30;61.90
57576;DHT22;43412;-33.800;150.804;2022-07-17T05:10:47;20.30;62.20
57576;DHT22;43412;-33.800;150.804;2022-07-17T05:13:14;20.30;62.20
57576;DHT22;43412;-33.800;150.804;2022-07-17T05:15:41;20.20;62.60
57576;DHT22;43412;-33.800;150.804;2022-07-17T05:18:09;20.20;62.20
57576;DHT22;43412;-33.800;150.804;2022-07-17T05:20:36;20.20;63.30
57576;DHT22;43412;-33.800;150.804;2022-07-17T05:23:03;20.20;62.00
57576;DHT22;43412;-33.800;150.804;2022-07-17T05:25:31;20.10;62.20
57576;DHT22;43412;-33.800;150.804;2022-07-17T05:27:59;20.20;63.20
57576;DHT22;43412;-33.800;150.804;2022-07-17T05:30:28;20.10;62.60
57576;DHT22;43412;-33.800;150.804;2022-07-17T05:32:56;20.10;63.30
57576;DHT22;43412;-33.800;150.804;2022-07-17T05:35:24;20.00;62.40
57576;DHT22;43412;-33.800;150.804;2022-07-17T05:37:51;20.00;63.60
57576;DHT22;43412;-33.800;150.804;2022-07-17T05:40:20;20.00;63.60
57576;DHT22;43412;-33.800;150.804;2022-07-17T05:42:52;20.00;64.20
57576;DHT22;43412;-33.800;150.804;2022-07-17T05:45:19;19.90;62.90
57576;DHT22;43412;-33.800;150.804;2022-07-17T05:47:47;19.90;63.80
57576;DHT22;43412;-33.800;150.804;2022-07-17T05:50:17;19.80;64.30
57576;DHT22;43412;-33.800;150.804;2022-07-17T05:52:44;19.90;64.20
57576;DHT22;43412;-33.800;150.804;2022-07-17T05:55:12;19.80;64.60
57576;DHT22;43412;-33.800;150.804;2022-07-17T05:57:39;19.90;63.70
57576;DHT22;43412;-33.800;150.804;2022-07-17T06:00:07;19.90;63.20
57576;DHT22;43412;-33.800;150.804;2022-07-17T06:02:34;19.90;63.80
57576;DHT22;43412;-33.800;150.804;2022-07-17T06:05:02;19.90;63.60
57576;DHT22;43412;-33.800;150.804;2022-07-17T06:07:30;19.90;63.60
57576;DHT22;43412;-33.800;150.804;2022-07-17T06:09:58;19.80;64.20
57576;DHT22;43412;-33.800;150.804;2022-07-17T06:12:25;19.80;63.70
57576;DHT22;43412;-33.800;150.804;2022-07-17T06:14:53;19.80;63.70
57576;DHT22;43412;-33.800;150.804;2022-07-17T06:17:20;19.80;64.00
57576;DHT22;43412;-33.800;150.804;2022-07-17T06:19:48;19.80;64.10
57576;DHT22;43412;-33.800;150.804;2022-07-17T06:22:21;19.80;63.70
57576;DHT22;43412;-33.800;150.804;2022-07-17T06:24:49;19.70;63.60
57576;DHT22;43412;-33.800;150.804;2022-07-17T06:27:16;19.80;64.30
57576;DHT22;43412;-33.800;150.804;2022-07-17T06:29:43;19.70;64.20
57576;DHT22;43412;-33.800;150.804;2022-07-17T06:32:12;19.70;64.50
57576;DHT22;43412;-33.800;150.804;2022-07-17T06:34:40;19.60;64.00
57576;DHT22;43412;-33.800;150.804;2022-07-17T06:37:08;19.50;64.00
57576;DHT22;43412;-33.800;150.804;2022-07-17T06:39:35;19.40;64.10
57576;DHT22;43412;-33.800;150.804;2022-07-17T06:42:03;19.40;64.70
57576;DHT22;43412;-33.800;150.804;2022-07-17T06:44:30;19.20;64.80
57576;DHT22;43412;-33.800;150.804;2022-07-17T06:46:58;19.10;64.90
57576;DHT22;43412;-33.800;150.804;2022-07-17T06:49:26;19.00;64.80
57576;DHT22;43412;-33.800;150.804;2022-07-17T06:51:53;19.00;65.70
57576;DHT22;43412;-33.800;150.804;2022-07-17T06:54:21;18.90;65.70
57576;DHT22;43412;-33.800;150.804;2022-07-17T06:56:53;18.70;65.90
57576;DHT22;43412;-33.800;150.804;2022-07-17T06:59:21;18.60;65.60
57576;DHT22;43412;-33.800;150.804;2022-07-17T07:01:48;18.50;66.20
57576;DHT22;43412;-33.800;150.804;2022-07-17T07:04:15;18.50;66.70
57576;DHT22;43412;-33.800;150.804;2022-07-17T07:06:43;18.40;67.00
57576;DHT22;43412;-33.800;150.804;2022-07-17T07:09:10;18.30;66.80
57576;DHT22;43412;-33.800;150.804;2022-07-17T07:11:41;18.20;66.70
57576;DHT22;43412;-33.800;150.804;2022-07-17T07:14:08;18.20;66.40
57576;DHT22;43412;-33.800;150.804;2022-07-17T07:16:36;18.10;67.10
57576;DHT22;43412;-33.800;150.804;2022-07-17T07:19:03;18.00;67.60
57576;DHT22;43412;-33.800;150.804;2022-07-17T07:21:31;17.90;68.10
57576;DHT22;43412;-33.800;150.804;2022-07-17T07:23:59;17.70;68.60
57576;DHT22;43412;-33.800;150.804;2022-07-17T07:26:26;17.40;69.40
57576;DHT22;43412;-33.800;150.804;2022-07-17T07:28:54;17.50;68.50
57576;DHT22;43412;-33.800;150.804;2022-07-17T07:31:21;17.50;68.50
57576;DHT22;43412;-33.800;150.804;2022-07-17T07:33:49;17.50;68.80
57576;DHT22;43412;-33.800;150.804;2022-07-17T07:36:16;17.50;68.80
57576;DHT22;43412;-33.800;150.804;2022-07-17T07:38:43;17.50;69.20
57576;DHT22;43412;-33.800;150.804;2022-07-17T07:41:12;17.40;69.40
57576;DHT22;43412;-33.800;150.804;2022-07-17T07:43:40;17.30;69.70
57576;DHT22;43412;-33.800;150.804;2022-07-17T07:46:07;17.20;70.00
57576;DHT22;43412;-33.800;150.804;2022-07-17T07:48:35;17.10;69.70
57576;DHT22;43412;-33.800;150.804;2022-07-17T07:51:02;17.10;70.40
57576;DHT22;43412;-33.800;150.804;2022-07-17T07:53:30;17.10;70.40
57576;DHT22;43412;-33.800;150.804;2022-07-17T07:55:58;17.00;70.90
57576;DHT22;43412;-33.800;150.804;2022-07-17T07:58:25;17.00;71.40
57576;DHT22;43412;-33.800;150.804;2022-07-17T08:00:53;16.80;71.60
57576;DHT22;43412;-33.800;150.804;2022-07-17T08:03:20;16.70;71.90
57576;DHT22;43412;-33.800;150.804;2022-07-17T08:05:48;16.60;72.40
57576;DHT22;43412;-33.800;150.804;2022-07-17T08:08:15;16.50;72.90
57576;DHT22;43412;-33.800;150.804;2022-07-17T08:10:42;16.30;73.50
57576;DHT22;43412;-33.800;150.804;2022-07-17T08:13:10;16.20;73.00
57576;DHT22;43412;-33.800;150.804;2022-07-17T08:15:37;16.10;73.10
57576;DHT22;43412;-33.800;150.804;2022-07-17T08:18:04;16.10;73.30
57576;DHT22;43412;-33.800;150.804;2022-07-17T08:20:33;16.10;73.80
57576;DHT22;43412;-33.800;150.804;2022-07-17T08:23:00;16.10;73.60
57576;DHT22;43412;-33.800;150.804;2022-07-17T08:25:28;16.10;73.30
57576;DHT22;43412;-33.800;150.804;2022-07-17T08:27:55;16.10;73.20
57576;DHT22;43412;-33.800;150.804;2022-07-17T08:30:22;16.10;73.40
57576;DHT22;43412;-33.800;150.804;2022-07-17T08:32:50;16.00;73.90
57576;DHT22;43412;-33.800;150.804;2022-07-17T08:35:17;16.00;73.80
57576;DHT22;43412;-33.800;150.804;2022-07-17T08:37:48;15.90;74.00
57576;DHT22;43412;-33.800;150.804;2022-07-17T08:40:24;15.80;73.90
57576;DHT22;43412;-33.800;150.804;2022-07-17T08:42:54;15.90;74.60
57576;DHT22;43412;-33.800;150.804;2022-07-17T08:45:21;15.90;74.30
57576;DHT22;43412;-33.800;150.804;2022-07-17T08:47:51;15.90;74.70
57576;DHT22;43412;-33.800;150.804;2022-07-17T08:50:33;15.80;74.30
57576;DHT22;43412;-33.800;150.804;2022-07-17T08:53:02;15.90;74.30
57576;DHT22;43412;-33.800;150.804;2022-07-17T08:55:32;15.90;74.50
57576;DHT22;43412;-33.800;150.804;2022-07-17T08:58:00;15.90;74.50
57576;DHT22;43412;-33.800;150.804;2022-07-17T09:00:28;15.90;74.70
57576;DHT22;43412;-33.800;150.804;2022-07-17T09:05:30;15.90;75.00
57576;DHT22;43412;-33.800;150.804;2022-07-17T09:07:58;15.80;75.30
57576;DHT22;43412;-33.800;150.804;2022-07-17T09:10:35;15.90;75.10
57576;DHT22;43412;-33.800;150.804;2022-07-17T09:13:20;15.90;75.30
57576;DHT22;43412;-33.800;150.804;2022-07-17T09:15:50;15.80;75.10
57576;DHT22;43412;-33.800;150.804;2022-07-17T09:18:18;15.90;74.90
57576;DHT22;43412;-33.800;150.804;2022-07-17T09:20:52;15.80;75.30
57576;DHT22;43412;-33.800;150.804;2022-07-17T09:23:21;15.80;75.50
57576;DHT22;43412;-33.800;150.804;2022-07-17T09:25:52;15.70;75.60
57576;DHT22;43412;-33.800;150.804;2022-07-17T09:28:20;15.80;75.50
57576;DHT22;43412;-33.800;150.804;2022-07-17T09:30:50;15.80;75.80
57576;DHT22;43412;-33.800;150.804;2022-07-17T09:33:28;15.70;75.70
57576;DHT22;43412;-33.800;150.804;2022-07-17T09:36:08;15.80;75.80
57576;DHT22;43412;-33.800;150.804;2022-07-17T09:38:40;15.80;76.10
57576;DHT22;43412;-33.800;150.804;2022-07-17T09:41:09;15.80;76.20
57576;DHT22;43412;-33.800;150.804;2022-07-17T09:43:53;15.80;75.80
57576;DHT22;43412;-33.800;150.804;2022-07-17T09:46:22;15.80;76.20
57576;DHT22;43412;-33.800;150.804;2022-07-17T09:48:55;15.80;76.30
57576;DHT22;43412;-33.800;150.804;2022-07-17T09:51:24;15.70;76.20
57576;DHT22;43412;-33.800;150.804;2022-07-17T09:53:58;15.70;76.50
57576;DHT22;43412;-33.800;150.804;2022-07-17T09:56:28;15.70;76.90
57576;DHT22;43412;-33.800;150.804;2022-07-17T10:01:28;15.70;76.80
57576;DHT22;43412;-33.800;150.804;2022-07-17T10:03:55;15.70;76.90
57576;DHT22;43412;-33.800;150.804;2022-07-17T10:06:24;15.60;77.10
57576;DHT22;43412;-33.800;150.804;2022-07-17T10:08:53;15.70;77.30
57576;DHT22;43412;-33.800;150.804;2022-07-17T10:11:23;15.60;77.60
57576;DHT22;43412;-33.800;150.804;2022-07-17T10:13:54;15.50;77.90
57576;DHT22;43412;-33.800;150.804;2022-07-17T10:16:27;15.50;77.80
57576;DHT22;43412;-33.800;150.804;2022-07-17T10:18:56;15.50;78.30
57576;DHT22;43412;-33.800;150.804;2022-07-17T10:21:26;15.50;77.90
57576;DHT22;43412;-33.800;150.804;2022-07-17T10:26:39;15.60;78.50
57576;DHT22;43412;-33.800;150.804;2022-07-17T10:29:34;15.50;78.60
57576;DHT22;43412;-33.800;150.804;2022-07-17T10:32:07;15.60;79.00
57576;DHT22;43412;-33.800;150.804;2022-07-17T10:34:39;15.50;79.20
57576;DHT22;43412;-33.800;150.804;2022-07-17T10:37:23;15.50;79.40
57576;DHT22;43412;-33.800;150.804;2022-07-17T10:45:18;15.60;80.00
57576;DHT22;43412;-33.800;150.804;2022-07-17T10:47:57;15.70;79.90
57576;DHT22;43412;-33.800;150.804;2022-07-17T10:50:29;15.70;80.10
57576;DHT22;43412;-33.800;150.804;2022-07-17T10:53:04;15.70;80.30
57576;DHT22;43412;-33.800;150.804;2022-07-17T10:55:32;15.70;80.60
57576;DHT22;43412;-33.800;150.804;2022-07-17T10:58:00;15.80;80.50
57576;DHT22;43412;-33.800;150.804;2022-07-17T11:00:28;15.70;80.70
57576;DHT22;43412;-33.800;150.804;2022-07-17T11:02:56;15.80;80.70
57576;DHT22;43412;-33.800;150.804;2022-07-17T11:05:23;15.80;80.80
57576;DHT22;43412;-33.800;150.804;2022-07-17T11:07:58;15.70;80.90
57576;DHT22;43412;-33.800;150.804;2022-07-17T11:10:28;15.80;80.70
57576;DHT22;43412;-33.800;150.804;2022-07-17T11:13:08;15.90;80.80
57576;DHT22;43412;-33.800;150.804;2022-07-17T11:15:44;15.90;81.20
57576;DHT22;43412;-33.800;150.804;2022-07-17T11:18:20;15.80;81.30
57576;DHT22;43412;-33.800;150.804;2022-07-17T11:20:50;15.70;81.80
57576;DHT22;43412;-33.800;150.804;2022-07-17T11:23:19;15.60;81.80
57576;DHT22;43412;-33.800;150.804;2022-07-17T11:26:05;15.70;82.10
57576;DHT22;43412;-33.800;150.804;2022-07-17T11:31:19;15.60;82.30
57576;DHT22;43412;-33.800;150.804;2022-07-17T11:33:48;15.60;82.40
57576;DHT22;43412;-33.800;150.804;2022-07-17T11:36:31;15.50;83.10
57576;DHT22;43412;-33.800;150.804;2022-07-17T11:39:06;15.50;83.00
57576;DHT22;43412;-33.800;150.804;2022-07-17T11:41:40;15.50;83.00
57576;DHT22;43412;-33.800;150.804;2022-07-17T11:44:11;15.50;83.40
57576;DHT22;43412;-33.800;150.804;2022-07-17T11:46:44;15.30;83.60
57576;DHT22;43412;-33.800;150.804;2022-07-17T11:54:55;15.10;84.40
57576;DHT22;43412;-33.800;150.804;2022-07-17T11:57:25;15.00;84.90
57576;DHT22;43412;-33.800;150.804;2022-07-17T11:59:53;14.90;84.90
57576;DHT22;43412;-33.800;150.804;2022-07-17T12:02:29;14.90;85.10
57576;DHT22;43412;-33.800;150.804;2022-07-17T12:04:59;14.80;85.60
57576;DHT22;43412;-33.800;150.804;2022-07-17T12:07:44;14.70;86.00
57576;DHT22;43412;-33.800;150.804;2022-07-17T12:10:24;14.60;86.20
57576;DHT22;43412;-33.800;150.804;2022-07-17T12:13:03;14.70;86.40
57576;DHT22;43412;-33.800;150.804;2022-07-17T12:15:43;14.70;86.50
57576;DHT22;43412;-33.800;150.804;2022-07-17T12:18:28;14.70;86.50
57576;DHT22;43412;-33.800;150.804;2022-07-17T12:20:58;14.60;86.50
57576;DHT22;43412;-33.800;150.804;2022-07-17T12:23:34;14.60;87.10
57576;DHT22;43412;-33.800;150.804;2022-07-17T12:26:11;14.60;87.00
57576;DHT22;43412;-33.800;150.804;2022-07-17T12:28:39;14.60;87.30
57576;DHT22;43412;-33.800;150.804;2022-07-17T12:31:08;14.50;87.50
57576;DHT22;43412;-33.800;150.804;2022-07-17T12:33:36;14.50;87.80
57576;DHT22;43412;-33.800;150.804;2022-07-17T12:36:03;14.50;88.00
57576;DHT22;43412;-33.800;150.804;2022-07-17T12:38:31;14.50;88.40
57576;DHT22;43412;-33.800;150.804;2022-07-17T12:40:58;14.50;88.10
57576;DHT22;43412;-33.800;150.804;2022-07-17T12:43:26;14.50;88.80
57576;DHT22;43412;-33.800;150.804;2022-07-17T12:45:54;14.40;88.50
57576;DHT22;43412;-33.800;150.804;2022-07-17T12:48:21;14.40;88.70
57576;DHT22;43412;-33.800;150.804;2022-07-17T12:50:49;14.50;88.80
57576;DHT22;43412;-33.800;150.804;2022-07-17T12:53:16;14.40;88.80
57576;DHT22;43412;-33.800;150.804;2022-07-17T12:55:43;14.50;88.80
57576;DHT22;43412;-33.800;150.804;2022-07-17T12:58:11;14.40;89.20
57576;DHT22;43412;-33.800;150.804;2022-07-17T13:00:38;14.40;89.40
57576;DHT22;43412;-33.800;150.804;2022-07-17T13:03:07;14.30;89.50
57576;DHT22;43412;-33.800;150.804;2022-07-17T13:05:34;14.30;89.70
57576;DHT22;43412;-33.800;150.804;2022-07-17T13:08:02;14.20;89.80
57576;DHT22;43412;-33.800;150.804;2022-07-17T13:10:29;14.20;89.90
57576;DHT22;43412;-33.800;150.804;2022-07-17T13:12:57;14.10;89.80
57576;DHT22;43412;-33.800;150.804;2022-07-17T13:15:25;14.10;90.00
57576;DHT22;43412;-33.800;150.804;2022-07-17T13:17:52;14.10;90.00
57576;DHT22;43412;-33.800;150.804;2022-07-17T13:20:19;14.10;90.10
57576;DHT22;43412;-33.800;150.804;2022-07-17T13:22:47;14.10;90.10
57576;DHT22;43412;-33.800;150.804;2022-07-17T13:25:14;14.10;90.10
57576;DHT22;43412;-33.800;150.804;2022-07-17T13:27:42;14.10;90.30
57576;DHT22;43412;-33.800;150.804;2022-07-17T13:30:10;14.00;90.20
57576;DHT22;43412;-33.800;150.804;2022-07-17T13:32:38;14.10;90.00
57576;DHT22;43412;-33.800;150.804;2022-07-17T13:35:06;14.10;90.00
57576;DHT22;43412;-33.800;150.804;2022-07-17T13:37:34;14.00;90.10
57576;DHT22;43412;-33.800;150.804;2022-07-17T13:40:01;14.10;90.10
57576;DHT22;43412;-33.800;150.804;2022-07-17T13:42:29;14.00;90.10
57576;DHT22;43412;-33.800;150.804;2022-07-17T13:44:56;14.00;90.00
57576;DHT22;43412;-33.800;150.804;2022-07-17T13:47:23;14.00;90.00
57576;DHT22;43412;-33.800;150.804;2022-07-17T13:49:51;13.90;89.80
57576;DHT22;43412;-33.800;150.804;2022-07-17T13:52:18;13.90;88.30
57576;DHT22;43412;-33.800;150.804;2022-07-17T13:54:46;14.10;88.00
57576;DHT22;43412;-33.800;150.804;2022-07-17T13:57:13;14.10;87.80
57576;DHT22;43412;-33.800;150.804;2022-07-17T13:59:40;14.00;88.00
57576;DHT22;43412;-33.800;150.804;2022-07-17T14:02:08;13.90;88.80
57576;DHT22;43412;-33.800;150.804;2022-07-17T14:04:35;13.70;89.30
57576;DHT22;43412;-33.800;150.804;2022-07-17T14:07:03;13.60;90.10
57576;DHT22;43412;-33.800;150.804;2022-07-17T14:09:30;13.50;90.30
57576;DHT22;43412;-33.800;150.804;2022-07-17T14:11:58;13.40;90.70
57576;DHT22;43412;-33.800;150.804;2022-07-17T14:14:25;13.30;90.40
57576;DHT22;43412;-33.800;150.804;2022-07-17T14:16:53;13.30;90.00
57576;DHT22;43412;-33.800;150.804;2022-07-17T14:19:21;13.50;88.90
57576;DHT22;43412;-33.800;150.804;2022-07-17T14:21:48;13.60;88.90
57576;DHT22;43412;-33.800;150.804;2022-07-17T14:24:16;13.60;88.50
57576;DHT22;43412;-33.800;150.804;2022-07-17T14:26:43;13.70;86.80
57576;DHT22;43412;-33.800;150.804;2022-07-17T14:29:13;13.80;85.70
57576;DHT22;43412;-33.800;150.804;2022-07-17T14:31:40;14.00;84.90
57576;DHT22;43412;-33.800;150.804;2022-07-17T14:34:08;14.30;83.60
57576;DHT22;43412;-33.800;150.804;2022-07-17T14:36:35;14.70;82.50
57576;DHT22;43412;-33.800;150.804;2022-07-17T14:39:03;14.90;81.80
57576;DHT22;43412;-33.800;150.804;2022-07-17T14:41:31;14.90;81.70
57576;DHT22;43412;-33.800;150.804;2022-07-17T14:43:59;14.90;82.00
57576;DHT22;43412;-33.800;150.804;2022-07-17T14:46:26;14.90;82.20
57576;DHT22;43412;-33.800;150.804;2022-07-17T14:48:54;14.90;81.60
57576;DHT22;43412;-33.800;150.804;2022-07-17T14:51:21;15.10;81.10
57576;DHT22;43412;-33.800;150.804;2022-07-17T14:53:48;15.20;81.20
57576;DHT22;43412;-33.800;150.804;2022-07-17T14:56:16;15.10;81.30
57576;DHT22;43412;-33.800;150.804;2022-07-17T14:58:43;15.10;81.50
57576;DHT22;43412;-33.800;150.804;2022-07-17T15:01:11;14.90;81.90
57576;DHT22;43412;-33.800;150.804;2022-07-17T15:03:38;14.80;82.50
57576;DHT22;43412;-33.800;150.804;2022-07-17T15:06:05;14.60;82.80
57576;DHT22;43412;-33.800;150.804;2022-07-17T15:08:33;14.50;83.50
57576;DHT22;43412;-33.800;150.804;2022-07-17T15:11:00;14.40;83.40
57576;DHT22;43412;-33.800;150.804;2022-07-17T15:13:28;14.40;83.60
57576;DHT22;43412;-33.800;150.804;2022-07-17T15:15:55;14.40;83.90
57576;DHT22;43412;-33.800;150.804;2022-07-17T15:18:22;14.50;84.40